UTTTOPRN

Guest
Details From UTTT - Yuzhny
To OPRN - Chaklala
Flight Number -
Tags Generated
Created
Modified
Stats Distance 493 nm / 913 km
Max Altitude 0 ft / 0 m
Waypoints 3
Social Downloads 2
Likes 0
Share VATSIM

Download

Looking for another format? Having issues loading an existing format? Contact us
Advertisement - Login to hide

Notes

Generated

Route

UTTT RN025 OPRN

ID Type Via Altitude Latitude Longitude Leg Dist Tot Dist Heading (true) Name
O UTTT APT - 0 ft / 0 m 41.25059˚ 69.25911˚ - 0 nm - -
RN025 FIX - 0 ft / 0 m 33.62425˚ 73.08106˚ 492 nm 492 nm 157° / 159° -
O OPRN APT - 0 ft / 0 m 33.62378˚ 73.08317˚ 0 nm 492 nm 105° / 105° -

Altitude Profile

Advertisement - Login to hide

Weather


0- 5 10 15 20 25 30 35+ Temperature / ° C

Clouds and Precipitation
Forecast for 2018-05-22 18:00 UTC. Updated an hour ago

Ground ~20,000 ft ~40,000 ft Winds

UTTT

Details ICAO UTTT (TAS)
Name Yuzhny
Region Tajikistan, Turkmenistan and Uzbekistan
Timezone Asia/Tashkent (UTC+5.0)
Stats Elevation 1,417 ft / 432 m (AMSL)
Location 41.255517° 69.281646°
Runways 2
Magnetic Variation 5.426° E

METAR

UTTT 221800Z 08006KT CAVOK 18/11 Q1017 R08R/CLRD70 NOSIG

Decode

TAF

TAF UTTT 221700Z 2218/2318 32010KT 7000 FEW060CB SCT100 PROB40 TEMPO 2218/2224 -TSRA SCT060CB

Decode

Departure Runways

ID Width Length Bearing (true) Bearing (mag) Surface Threshold Offset Overrun Length
08L 197 ft / 60 m 13,135 ft / 4,004 m 76.98° 71.55° Concrete 820 ft / 250 m 0 ft / 0 m
08R 148 ft / 45 m 12,824 ft / 3,909 m 76.99° 71.56° Asphalt 650 ft / 198 m 0 ft / 0 m
26L 148 ft / 45 m 12,824 ft / 3,909 m 257.02° 251.59° Asphalt 680 ft / 207 m 0 ft / 0 m
26R 197 ft / 60 m 13,135 ft / 4,004 m 257.02° 251.59° Concrete 820 ft / 250 m 0 ft / 0 m

OPRN

Details ICAO OPRN (ISB)
Name CHAKLALA
Region Pakistan
Timezone Asia/Karachi (UTC+5.0)
Stats Elevation 1,668 ft / 508 m (AMSL)
Location 33.616768° 73.098812°
Runways 1
Magnetic Variation 2.638° E

METAR

OPRN 221830Z 31004KT CAVOK 27/09 Q1009 NOSIG RMK A2981

Decode

TAF

Not found

Destination Runways

ID Width Length Bearing (true) Bearing (mag) Surface Threshold Offset Overrun Length
12 150 ft / 46 m 10,795 ft / 3,290 m 118.28° 115.64° Asphalt 885 ft / 270 m 680 ft / 207 m
30 150 ft / 46 m 10,795 ft / 3,290 m 298.30° 295.66° Asphalt 885 ft / 270 m 740 ft / 226 m

Approach Navaids

Runway Type Ident Frequency Range Bearing (true) Bearing (mag) Slope Elevation
30 Localiser IRN 110.30 MHz 18 nm / 33 km 298.21° 295.57° - 1,656 ft / 505 m (AMSL)
30 Glidescope IRN 110.30 MHz 10 nm / 19 km 298.29° 295.65° 3.00° 1,707 ft / 520 m (AMSL)
30 DME IRN 110.30 MHz 18 nm / 33 km - - - 1,713 ft / 522 m (AMSL)

Popular Alternatives